P. B. Shah — WDB8609 — position and weather

sailwx.info

Track history (hours):
 
Tides and Currents Weather Stations Pressure Air Temp Water Temp Dewpoint Dewpoint Depression Visibility Wind Speed Wind Dir Waves Ship Positions

P. B. Shah

Owner: Ingram Barge Company LLC, Nashville, TN. More information available from US FCC via Universal Licensing System and Coast Guard Vessel Documentation Center.

Last reported at 2017-Feb-24 12:29 UTC. Time now 2017-Jun-27 13:50 UTC.
Position N 32°47' W 091°10'.
Warning: this ship's position is months out of date.

Length 49 m; draft 2.7 m.

Type: Towing. MMSI: 366961480.

Date/timePositionNaut miles runAvg speedWind from/ knotsBaromVisibWave heightAir tempDewpointWater temp
2017-Feb-24 12:29N 32°47' W 091°10'7 3.4
2017-Feb-24 10:31N 32°43' W 091°03'5 1.9
2017-Feb-24 08:04N 32°40' W 091°07'2 4.4
2017-Feb-24 07:33N 32°39' W 091°09'3 3.3
2017-Feb-24 06:33N 32°35' W 091°08'3 3.1
2017-Feb-24 05:33N 32°33' W 091°06'3 3.0
2017-Feb-24 04:33N 32°30' W 091°07'2 2.4
2017-Feb-24 03:33N 32°28' W 091°06'4 4.5
2017-Feb-24 02:33N 32°26' W 091°01'4 3.6
2017-Feb-24 01:33N 32°22' W 091°00'3 2.9
2017-Feb-24 00:33N 32°21' W 090°57'3 2.6
2017-Feb-23 23:33N 32°20' W 090°54'2 2.0
2017-Feb-23 22:33N 32°18' W 090°55'0 0.4
2017-Feb-23 21:33N 32°18' W 090°56'3 3.4
2017-Feb-23 20:33N 32°15' W 090°58'3 2.6
2017-Feb-23 19:33N 32°13' W 090°59'4 4.3
2017-Feb-23 18:33N 32°09' W 091°00'3 3.2
2017-Feb-23 17:33N 32°08' W 091°04'2 2.3
2017-Feb-23 16:33N 32°07' W 091°07'8 4.0
2017-Feb-23 14:32N 31°59' W 091°06'  
2017-Feb-19 15:05N 29°58' W 090°16'0 0.0
2017-Feb-19 14:14N 29°58' W 090°16'0 0.0
2017-Feb-19 13:33N 29°58' W 090°16'0 0.0
2017-Feb-19 12:33N 29°58' W 090°16'0 0.0
2017-Feb-19 11:33N 29°58' W 090°16'2 1.6
2017-Feb-19 10:33N 29°58' W 090°14'  
Track history (hours):
 
Tides and Currents Weather Stations Pressure Air Temp Water Temp Dewpoint Dewpoint Depression Visibility Wind Speed Wind Dir Waves Ship Positions

P. B. Shah

Owner: Ingram Barge Company LLC, Nashville, TN. More information available from US FCC via Universal Licensing System and Coast Guard Vessel Documentation Center.

Last reported at 2017-Feb-24 12:29 UTC. Time now 2017-Jun-27 13:50 UTC.
Position N 32°47' W 091°10'.
Warning: this ship's position is months out of date.

Length 49 m; draft 2.7 m.

Type: Towing. MMSI: 366961480.

Date/timePositionNaut miles runAvg speedWind from/ knotsBaromVisibWave heightAir tempDewpointWater temp
2017-Feb-24 12:29N 32°47' W 091°10'7 3.4
2017-Feb-24 10:31N 32°43' W 091°03'5 1.9
2017-Feb-24 08:04N 32°40' W 091°07'2 4.4
2017-Feb-24 07:33N 32°39' W 091°09'3 3.3
2017-Feb-24 06:33N 32°35' W 091°08'3 3.1
2017-Feb-24 05:33N 32°33' W 091°06'3 3.0
2017-Feb-24 04:33N 32°30' W 091°07'2 2.4
2017-Feb-24 03:33N 32°28' W 091°06'4 4.5
2017-Feb-24 02:33N 32°26' W 091°01'4 3.6
2017-Feb-24 01:33N 32°22' W 091°00'3 2.9
2017-Feb-24 00:33N 32°21' W 090°57'3 2.6
2017-Feb-23 23:33N 32°20' W 090°54'2 2.0
2017-Feb-23 22:33N 32°18' W 090°55'0 0.4
2017-Feb-23 21:33N 32°18' W 090°56'3 3.4
2017-Feb-23 20:33N 32°15' W 090°58'3 2.6
2017-Feb-23 19:33N 32°13' W 090°59'4 4.3
2017-Feb-23 18:33N 32°09' W 091°00'3 3.2
2017-Feb-23 17:33N 32°08' W 091°04'2 2.3
2017-Feb-23 16:33N 32°07' W 091°07'8 4.0
2017-Feb-23 14:32N 31°59' W 091°06'  
2017-Feb-19 15:05N 29°58' W 090°16'0 0.0
2017-Feb-19 14:14N 29°58' W 090°16'0 0.0
2017-Feb-19 13:33N 29°58' W 090°16'0 0.0
2017-Feb-19 12:33N 29°58' W 090°16'0 0.0
2017-Feb-19 11:33N 29°58' W 090°16'2 1.6
2017-Feb-19 10:33N 29°58' W 090°14'  

Dump ship's entire track history